Time;durP1;ratioP1;P1;durP2;ratioP2;P2;SDS_P1;SDS_P2;PMS_P1;PMS_P2;Temp;Humidity;BMP_temperature;BMP_pressure;BME280_temperature;BME280_humidity;BME280_pressure;Samples;Min_cycle;Max_cycle;Signal;HPM_P1;HPM_P2
2021/06/05 00:00:00;;;;;;;1.90;0.63;;;;;;;;;;5139820;27;20207;-65
2021/06/05 00:02:29;;;;;;;1.20;0.63;;;;;;;;;;5140115;27;20228;-65
2021/06/05 00:04:59;;;;;;;0.40;0.40;;;;;;;;;;5140229;27;20214;-65
2021/06/05 00:07:27;;;;;;;4.43;0.70;;;;;;;;;;5140170;27;20212;-65
2021/06/05 00:09:54;;;;;;;2.27;0.47;;;;;;;;;;5140092;27;20292;-65
2021/06/05 00:12:26;;;;;;;1.37;0.67;;;;;;;;;;5132771;27;20217;-65
2021/06/05 00:14:53;;;;;;;1.33;0.60;;;;;;;;;;5126741;27;20284;-65
2021/06/05 00:17:21;;;;;;;1.13;0.50;;;;;;;;;;5140136;27;20210;-65
2021/06/05 00:19:49;;;;;;;0.70;0.70;;;;;;;;;;5140124;27;20208;-65
2021/06/05 00:22:16;;;;;;;1.87;0.50;;;;;;;;;;5139443;27;20609;-66
2021/06/05 00:24:43;;;;;;;1.67;0.50;;;;;;;;;;5140055;27;20204;-65
2021/06/05 00:27:11;;;;;;;0.50;0.50;;;;;;;;;;5139858;27;20208;-66
2021/06/05 00:29:40;;;;;;;1.43;0.70;;;;;;;;;;5139748;27;20240;-65
2021/06/05 00:32:08;;;;;;;0.40;0.40;;;;;;;;;;5139755;27;20220;-66
2021/06/05 00:34:35;;;;;;;2.03;0.60;;;;;;;;;;5139404;27;20232;-66
2021/06/05 00:37:03;;;;;;;1.23;0.60;;;;;;;;;;5139232;27;20235;-65
2021/06/05 00:39:31;;;;;;;1.10;0.50;;;;;;;;;;5139804;27;20214;-65
2021/06/05 00:41:58;;;;;;;3.50;0.40;;;;;;;;;;5139545;27;20222;-65
2021/06/05 00:44:25;;;;;;;1.50;0.50;;;;;;;;;;5139681;27;20222;-65
2021/06/05 00:46:54;;;;;;;0.53;0.50;;;;;;;;;;5139621;27;20212;-65
2021/06/05 00:49:22;;;;;;;4.33;0.80;;;;;;;;;;5139290;27;20208;-65
2021/06/05 00:51:51;;;;;;;0.93;0.40;;;;;;;;;;5139202;27;20228;-65
2021/06/05 00:54:19;;;;;;;0.50;0.43;;;;;;;;;;5139103;27;20583;-66
2021/06/05 00:56:48;;;;;;;0.57;0.57;;;;;;;;;;5139465;27;20267;-65
2021/06/05 00:59:16;;;;;;;0.77;0.50;;;;;;;;;;5138778;27;20568;-66
2021/06/05 01:01:43;;;;;;;0.77;0.40;;;;;;;;;;5138962;27;20234;-65
2021/06/05 01:04:12;;;;;;;0.70;0.70;;;;;;;;;;5139163;27;20196;-66
2021/06/05 01:06:42;;;;;;;4.80;0.60;;;;;;;;;;5138564;27;20294;-66
2021/06/05 01:09:12;;;;;;;0.90;0.60;;;;;;;;;;5138494;27;20211;-66
2021/06/05 01:11:43;;;;;;;0.70;0.70;;;;;;;;;;5136930;27;20219;-65
2021/06/05 01:14:16;;;;;;;1.77;0.53;;;;;;;;;;5133170;27;20250;-66
2021/06/05 01:16:46;;;;;;;1.10;0.60;;;;;;;;;;5138440;27;20207;-65
2021/06/05 01:19:22;;;;;;;0.63;0.50;;;;;;;;;;5138775;27;20200;-65
2021/06/05 01:22:02;;;;;;;0.93;0.90;;;;;;;;;;5138729;27;20228;-65
2021/06/05 01:24:36;;;;;;;1.23;0.90;;;;;;;;;;5139083;27;20210;-65
2021/06/05 01:27:09;;;;;;;0.93;0.73;;;;;;;;;;5138734;27;20203;-65
2021/06/05 01:29:38;;;;;;;1.87;1.00;;;;;;;;;;5138822;27;20236;-65
2021/06/05 01:32:06;;;;;;;1.13;0.83;;;;;;;;;;5138799;28;20226;-65
2021/06/05 01:34:36;;;;;;;1.37;1.23;;;;;;;;;;5138774;28;20242;-65
2021/06/05 01:37:06;;;;;;;2.30;0.90;;;;;;;;;;5138251;28;20208;-65
2021/06/05 01:39:35;;;;;;;2.47;1.50;;;;;;;;;;5138454;28;20204;-65
2021/06/05 01:42:05;;;;;;;2.60;1.27;;;;;;;;;;5138306;28;20226;-65
2021/06/05 01:44:35;;;;;;;2.37;1.60;;;;;;;;;;5138538;28;20200;-65
2021/06/05 01:47:03;;;;;;;2.00;1.90;;;;;;;;;;5138272;28;20723;-65
2021/06/05 01:49:30;;;;;;;1.80;1.53;;;;;;;;;;5138028;28;20204;-65
2021/06/05 01:52:00;;;;;;;1.97;1.60;;;;;;;;;;5137866;28;20235;-65
2021/06/05 01:54:29;;;;;;;3.90;2.10;;;;;;;;;;5137803;28;20234;-65
2021/06/05 01:56:59;;;;;;;2.30;1.83;;;;;;;;;;5137923;28;20208;-65
2021/06/05 01:59:28;;;;;;;2.97;1.80;;;;;;;;;;5138191;28;20208;-65
2021/06/05 02:01:57;;;;;;;3.07;2.10;;;;;;;;;;5138093;28;20228;-65
2021/06/05 02:04:25;;;;;;;3.17;2.23;;;;;;;;;;5137962;28;20666;-65
2021/06/05 02:06:53;;;;;;;3.67;2.13;;;;;;;;;;5138154;28;20290;-65
2021/06/05 02:09:23;;;;;;;2.33;1.70;;;;;;;;;;5138580;28;20204;-65
2021/06/05 02:11:52;;;;;;;2.40;1.40;;;;;;;;;;5136133;27;20239;-65
2021/06/05 02:14:23;;;;;;;1.30;1.23;;;;;;;;;;5137456;27;20277;-65
2021/06/05 02:16:52;;;;;;;1.83;1.17;;;;;;;;;;5142592;27;20210;-65
2021/06/05 02:19:23;;;;;;;1.60;1.10;;;;;;;;;;5142361;27;20212;-65
2021/06/05 02:21:51;;;;;;;1.50;1.40;;;;;;;;;;5142334;27;20226;-65
2021/06/05 02:24:22;;;;;;;1.83;1.60;;;;;;;;;;5142613;27;20754;-65
2021/06/05 02:26:50;;;;;;;3.90;1.70;;;;;;;;;;5142922;27;20279;-65
2021/06/05 02:29:20;;;;;;;2.27;2.00;;;;;;;;;;5142350;27;20236;-65
2021/06/05 02:31:47;;;;;;;2.10;1.90;;;;;;;;;;5142092;27;20789;-65
2021/06/05 02:34:16;;;;;;;3.57;2.60;;;;;;;;;;5141992;27;20208;-65
2021/06/05 02:36:47;;;;;;;4.00;2.57;;;;;;;;;;5141731;27;20204;-65
2021/06/05 02:39:15;;;;;;;4.77;2.13;;;;;;;;;;5142183;27;20208;-65
2021/06/05 02:41:44;;;;;;;5.33;2.83;;;;;;;;;;5141643;27;20232;-65
2021/06/05 02:44:13;;;;;;;8.83;2.40;;;;;;;;;;5142025;27;20210;-65
2021/06/05 02:46:42;;;;;;;2.87;2.07;;;;;;;;;;5142237;27;20208;-65
2021/06/05 02:49:23;;;;;;;3.20;2.20;;;;;;;;;;5141776;27;20338;-65
2021/06/05 02:51:54;;;;;;;4.90;2.43;;;;;;;;;;5141697;27;20235;-65
2021/06/05 02:54:22;;;;;;;2.87;2.00;;;;;;;;;;5141822;27;20207;-65
2021/06/05 02:56:49;;;;;;;3.47;1.90;;;;;;;;;;5141503;27;20204;-65
2021/06/05 02:59:17;;;;;;;2.03;1.60;;;;;;;;;;5141489;27;20214;-65
2021/06/05 03:01:45;;;;;;;3.43;1.87;;;;;;;;;;5141303;27;20247;-65
2021/06/05 03:04:12;;;;;;;1.67;1.33;;;;;;;;;;5141603;27;20208;-65
2021/06/05 03:06:40;;;;;;;2.00;1.40;;;;;;;;;;5127525;27;20724;-65
2021/06/05 03:09:12;;;;;;;1.47;1.17;;;;;;;;;;5141556;27;20210;-65
2021/06/05 03:11:39;;;;;;;2.07;1.17;;;;;;;;;;5139773;27;20226;-65
2021/06/05 03:14:07;;;;;;;1.80;1.50;;;;;;;;;;5135909;27;20215;-65
2021/06/05 03:16:34;;;;;;;1.57;1.47;;;;;;;;;;5141428;27;20235;-65
2021/06/05 03:19:02;;;;;;;1.40;1.30;;;;;;;;;;5140989;27;20212;-65
2021/06/05 03:21:29;;;;;;;2.90;1.37;;;;;;;;;;5141052;27;20234;-65
2021/06/05 03:23:57;;;;;;;1.60;1.27;;;;;;;;;;5140910;27;20223;-65
2021/06/05 03:26:26;;;;;;;2.37;1.40;;;;;;;;;;5141246;27;20210;-65
2021/06/05 03:28:53;;;;;;;2.90;1.33;;;;;;;;;;5140621;27;20335;-65
2021/06/05 03:31:21;;;;;;;1.00;1.00;;;;;;;;;;5140952;27;20239;-65
2021/06/05 03:33:50;;;;;;;2.60;1.27;;;;;;;;;;5140832;27;20263;-65
2021/06/05 03:36:18;;;;;;;2.90;1.00;;;;;;;;;;5140435;27;20227;-65
2021/06/05 03:38:45;;;;;;;1.77;1.00;;;;;;;;;;5140421;27;20208;-64
2021/06/05 03:41:13;;;;;;;2.63;1.10;;;;;;;;;;5140811;27;20234;-65
2021/06/05 03:43:42;;;;;;;1.60;0.87;;;;;;;;;;5133891;27;20200;-65
2021/06/05 03:46:10;;;;;;;2.10;1.10;;;;;;;;;;5131587;27;20558;-65
2021/06/05 03:48:37;;;;;;;1.23;0.90;;;;;;;;;;5132891;27;20204;-65
2021/06/05 03:51:05;;;;;;;1.53;1.20;;;;;;;;;;5132155;27;20196;-64
2021/06/05 03:53:33;;;;;;;1.50;1.00;;;;;;;;;;5134305;27;20746;-65
2021/06/05 03:56:01;;;;;;;1.40;1.30;;;;;;;;;;5135847;27;20220;-65
2021/06/05 03:58:30;;;;;;;1.13;1.10;;;;;;;;;;5138736;27;20207;-65
2021/06/05 04:00:59;;;;;;;2.23;1.40;;;;;;;;;;5138852;27;20203;-65
2021/06/05 04:03:26;;;;;;;1.23;1.13;;;;;;;;;;5138515;27;20200;-65
2021/06/05 04:05:54;;;;;;;1.60;1.50;;;;;;;;;;5139434;27;20195;-64
2021/06/05 04:08:21;;;;;;;1.53;1.23;;;;;;;;;;5139380;27;20283;-65
2021/06/05 04:10:49;;;;;;;2.43;1.40;;;;;;;;;;5139871;27;20203;-65
2021/06/05 04:13:16;;;;;;;1.13;1.00;;;;;;;;;;5136513;27;20220;-64
2021/06/05 04:15:44;;;;;;;1.30;1.20;;;;;;;;;;5139364;27;20581;-64
2021/06/05 04:18:14;;;;;;;1.53;1.43;;;;;;;;;;5139630;27;20200;-65
2021/06/05 04:20:42;;;;;;;1.60;1.50;;;;;;;;;;5139417;27;20204;-65
2021/06/05 04:23:10;;;;;;;1.60;1.50;;;;;;;;;;5139410;27;20741;-64
2021/06/05 04:25:38;;;;;;;1.67;1.53;;;;;;;;;;5136820;27;20284;-64
2021/06/05 04:28:07;;;;;;;3.67;1.77;;;;;;;;;;5139906;27;20268;-64
2021/06/05 04:30:35;;;;;;;1.77;1.67;;;;;;;;;;5137675;27;20240;-64
2021/06/05 04:33:03;;;;;;;3.13;1.90;;;;;;;;;;5138825;27;20222;-64
2021/06/05 04:35:32;;;;;;;3.17;1.90;;;;;;;;;;5137630;27;20220;-64
2021/06/05 04:38:00;;;;;;;2.20;2.00;;;;;;;;;;5138266;27;20226;-64
2021/06/05 04:40:28;;;;;;;1.93;1.83;;;;;;;;;;5138078;27;20199;-64
2021/06/05 04:42:55;;;;;;;2.80;2.20;;;;;;;;;;5135502;27;20234;-64
2021/06/05 04:45:23;;;;;;;2.67;1.87;;;;;;;;;;5137437;27;20600;-65
2021/06/05 04:47:51;;;;;;;3.80;2.20;;;;;;;;;;5131569;27;20252;-64
2021/06/05 04:50:20;;;;;;;3.57;2.30;;;;;;;;;;5128619;27;20287;-64
2021/06/05 04:52:49;;;;;;;2.07;1.93;;;;;;;;;;5129714;27;20212;-64
2021/06/05 04:55:17;;;;;;;2.17;2.07;;;;;;;;;;5136930;27;20220;-65
2021/06/05 04:57:51;;;;;;;4.43;2.60;;;;;;;;;;5127417;27;20204;-65
2021/06/05 05:00:21;;;;;;;2.90;2.53;;;;;;;;;;5138107;27;20286;-65
2021/06/05 05:02:49;;;;;;;3.77;2.60;;;;;;;;;;5138194;27;20702;-65
2021/06/05 05:05:16;;;;;;;3.63;3.13;;;;;;;;;;5138797;27;20192;-64
2021/06/05 05:07:45;;;;;;;4.70;2.37;;;;;;;;;;5138334;27;20200;-65
2021/06/05 05:10:15;;;;;;;3.77;2.57;;;;;;;;;;5138689;27;20208;-65
2021/06/05 05:12:42;;;;;;;2.03;1.83;;;;;;;;;;5137626;27;20216;-64
2021/06/05 05:15:10;;;;;;;3.37;2.40;;;;;;;;;;5138522;27;20196;-65
2021/06/05 05:17:37;;;;;;;3.00;2.33;;;;;;;;;;5138382;27;20678;-65
2021/06/05 05:20:05;;;;;;;3.27;2.90;;;;;;;;;;5138400;27;20210;-65
2021/06/05 05:22:33;;;;;;;2.90;2.70;;;;;;;;;;5138303;27;20271;-65
2021/06/05 05:25:00;;;;;;;3.47;3.17;;;;;;;;;;5138674;27;20234;-65
2021/06/05 05:27:29;;;;;;;3.80;2.70;;;;;;;;;;5138994;27;20291;-65
2021/06/05 05:29:57;;;;;;;6.53;3.43;;;;;;;;;;5138519;27;20323;-64
2021/06/05 05:32:25;;;;;;;5.37;4.30;;;;;;;;;;5138277;27;20589;-64
2021/06/05 05:34:52;;;;;;;4.00;3.70;;;;;;;;;;5138358;28;20215;-65
2021/06/05 05:37:19;;;;;;;4.17;3.83;;;;;;;;;;5138054;28;20228;-65
2021/06/05 05:39:47;;;;;;;4.00;3.03;;;;;;;;;;5138676;28;20208;-65
2021/06/05 05:42:14;;;;;;;3.80;3.33;;;;;;;;;;5138383;28;20220;-66
2021/06/05 05:44:43;;;;;;;4.10;2.83;;;;;;;;;;5138517;28;20216;-65
2021/06/05 05:47:11;;;;;;;5.50;3.53;;;;;;;;;;5141688;27;20200;-65
2021/06/05 05:49:38;;;;;;;5.57;3.57;;;;;;;;;;5142633;27;20211;-65
2021/06/05 05:52:07;;;;;;;3.60;3.27;;;;;;;;;;5128779;27;20230;-65
2021/06/05 05:54:34;;;;;;;4.00;3.20;;;;;;;;;;5142454;27;20291;-65
2021/06/05 05:57:02;;;;;;;3.70;3.13;;;;;;;;;;5142755;27;20220;-66
2021/06/05 05:59:29;;;;;;;4.17;2.93;;;;;;;;;;5142668;27;20208;-65
2021/06/05 06:01:58;;;;;;;3.00;2.80;;;;;;;;;;5142423;27;20295;-65
2021/06/05 06:04:26;;;;;;;3.50;2.50;;;;;;;;;;5142410;27;20686;-66
2021/06/05 06:06:54;;;;;;;3.57;2.70;;;;;;;;;;5142436;27;20203;-66
2021/06/05 06:09:21;;;;;;;2.77;2.57;;;;;;;;;;5142394;27;20204;-66
2021/06/05 06:11:48;;;;;;;2.93;2.73;;;;;;;;;;5141907;27;20223;-65
2021/06/05 06:14:16;;;;;;;2.90;2.70;;;;;;;;;;5142514;27;20237;-66
2021/06/05 06:16:44;;;;;;;3.30;3.00;;;;;;;;;;5142552;27;20228;-66
2021/06/05 06:19:13;;;;;;;3.53;2.80;;;;;;;;;;5142526;27;20254;-65
2021/06/05 06:21:41;;;;;;;3.73;2.60;;;;;;;;;;5142203;27;20255;-66
2021/06/05 06:24:10;;;;;;;4.77;2.37;;;;;;;;;;5141967;27;20204;-65
2021/06/05 06:26:38;;;;;;;2.17;2.07;;;;;;;;;;5142019;27;20211;-66
2021/06/05 06:29:12;;;;;;;2.57;2.10;;;;;;;;;;5141840;27;20319;-65
2021/06/05 06:31:42;;;;;;;4.43;1.83;;;;;;;;;;5141815;27;20591;-65
2021/06/05 06:34:10;;;;;;;2.90;2.00;;;;;;;;;;5141740;27;20675;-65
2021/06/05 06:36:40;;;;;;;3.93;2.00;;;;;;;;;;5141859;27;20230;-64
2021/06/05 06:39:08;;;;;;;3.37;2.00;;;;;;;;;;5125558;27;20208;-65
2021/06/05 06:41:35;;;;;;;2.83;1.77;;;;;;;;;;5130757;27;20220;-65
2021/06/05 06:44:05;;;;;;;1.77;1.67;;;;;;;;;;5133068;27;20287;-65
2021/06/05 06:46:38;;;;;;;1.50;1.40;;;;;;;;;;5135151;27;20193;-65
2021/06/05 06:49:07;;;;;;;1.60;1.50;;;;;;;;;;5135124;27;20683;-65
2021/06/05 06:51:35;;;;;;;1.70;1.60;;;;;;;;;;5132259;27;20220;-65
2021/06/05 06:54:05;;;;;;;1.80;1.63;;;;;;;;;;5132188;27;20211;-65
2021/06/05 06:56:32;;;;;;;1.30;1.20;;;;;;;;;;5132353;27;20222;-65
2021/06/05 06:59:00;;;;;;;1.53;1.43;;;;;;;;;;5131688;27;20197;-65
2021/06/05 07:01:27;;;;;;;1.60;1.23;;;;;;;;;;5134139;27;20215;-65
2021/06/05 07:03:55;;;;;;;1.40;1.10;;;;;;;;;;5133987;27;20201;-65
2021/06/05 07:06:25;;;;;;;1.47;1.37;;;;;;;;;;5136652;27;20192;-65
2021/06/05 07:08:53;;;;;;;3.70;1.80;;;;;;;;;;5131762;27;20203;-65
2021/06/05 07:11:22;;;;;;;1.57;1.50;;;;;;;;;;5137358;27;20219;-65
2021/06/05 07:13:50;;;;;;;5.83;1.53;;;;;;;;;;5139760;27;20222;-65
2021/06/05 07:16:17;;;;;;;1.97;1.27;;;;;;;;;;5140390;27;20216;-66
2021/06/05 07:18:45;;;;;;;2.40;1.40;;;;;;;;;;5140759;27;20245;-66
2021/06/05 07:21:14;;;;;;;1.20;1.20;;;;;;;;;;5139496;27;20661;-66
2021/06/05 07:23:42;;;;;;;1.07;0.97;;;;;;;;;;5132175;27;20673;-66
2021/06/05 07:26:11;;;;;;;6.13;3.43;;;;;;;;;;5137737;27;20647;-66
2021/06/05 07:28:43;;;;;;;1.30;1.10;;;;;;;;;;5137050;27;20283;-65
2021/06/05 07:31:12;;;;;;;0.87;0.87;;;;;;;;;;5135172;27;20279;-64
2021/06/05 07:33:41;;;;;;;0.70;0.70;;;;;;;;;;5140540;27;20196;-66
2021/06/05 07:36:10;;;;;;;1.10;1.00;;;;;;;;;;5140396;27;20654;-66
2021/06/05 07:38:37;;;;;;;3.47;0.90;;;;;;;;;;5140722;27;20204;-66
2021/06/05 07:41:05;;;;;;;2.77;0.80;;;;;;;;;;5140468;27;20219;-65
2021/06/05 07:43:33;;;;;;;1.27;0.90;;;;;;;;;;5140022;27;20231;-66
2021/06/05 07:46:03;;;;;;;4.40;1.13;;;;;;;;;;5140126;27;20205;-65
2021/06/05 07:48:32;;;;;;;0.83;0.77;;;;;;;;;;5126183;27;20204;-65
2021/06/05 07:50:59;;;;;;;5.93;1.00;;;;;;;;;;5139428;27;20667;-65
2021/06/05 07:53:27;;;;;;;0.63;0.63;;;;;;;;;;5139887;27;20750;-64
2021/06/05 07:55:54;;;;;;;3.03;0.90;;;;;;;;;;5139836;27;20227;-66
2021/06/05 07:58:22;;;;;;;1.60;0.70;;;;;;;;;;5140017;27;20205;-64
2021/06/05 08:00:50;;;;;;;0.70;0.70;;;;;;;;;;5139816;27;20716;-65
2021/06/05 08:03:19;;;;;;;2.03;1.33;;;;;;;;;;5139810;27;20287;-66
2021/06/05 08:05:46;;;;;;;1.00;1.00;;;;;;;;;;5139825;27;20212;-66
2021/06/05 08:08:14;;;;;;;1.17;0.93;;;;;;;;;;5139834;27;20207;-66
2021/06/05 08:10:43;;;;;;;0.87;0.83;;;;;;;;;;5138459;27;20705;-66
2021/06/05 08:13:11;;;;;;;1.27;1.00;;;;;;;;;;5133862;27;20699;-66
2021/06/05 08:15:40;;;;;;;1.20;1.00;;;;;;;;;;5139344;27;20204;-66
2021/06/05 08:18:08;;;;;;;0.80;0.80;;;;;;;;;;5138596;27;20226;-66
2021/06/05 08:20:39;;;;;;;1.17;1.07;;;;;;;;;;5139251;27;20212;-66
2021/06/05 08:23:07;;;;;;;3.13;0.90;;;;;;;;;;5139350;27;20224;-66
2021/06/05 08:25:35;;;;;;;1.10;0.77;;;;;;;;;;5139604;27;20213;-65
2021/06/05 08:28:02;;;;;;;1.00;0.80;;;;;;;;;;5139306;27;20212;-65
2021/06/05 08:30:33;;;;;;;0.93;0.93;;;;;;;;;;5138890;27;20704;-64
2021/06/05 08:33:00;;;;;;;0.90;0.90;;;;;;;;;;5139039;27;20272;-66
2021/06/05 08:35:28;;;;;;;0.87;0.87;;;;;;;;;;5138628;27;20296;-66
2021/06/05 08:37:57;;;;;;;3.20;1.30;;;;;;;;;;5139136;27;20233;-66
2021/06/05 08:40:32;;;;;;;0.80;0.80;;;;;;;;;;5138621;27;20287;-65
2021/06/05 08:43:00;;;;;;;1.80;1.30;;;;;;;;;;5130307;27;20243;-65
2021/06/05 08:45:31;;;;;;;0.90;0.90;;;;;;;;;;5138761;27;20613;-65
2021/06/05 08:47:59;;;;;;;2.07;0.67;;;;;;;;;;5139081;27;20201;-65
2021/06/05 08:50:30;;;;;;;1.47;0.70;;;;;;;;;;5138270;27;20574;-66
2021/06/05 08:53:02;;;;;;;0.33;0.33;;;;;;;;;;5139238;27;20220;-66
2021/06/05 08:55:34;;;;;;;0.40;0.40;;;;;;;;;;5139400;27;20208;-66
2021/06/05 08:58:05;;;;;;;0.30;0.30;;;;;;;;;;5139075;27;20224;-66
2021/06/05 09:00:36;;;;;;;1.90;0.53;;;;;;;;;;5139028;27;20200;-66
2021/06/05 09:03:07;;;;;;;0.40;0.40;;;;;;;;;;5138403;27;20232;-66
2021/06/05 09:05:36;;;;;;;0.80;0.60;;;;;;;;;;5137850;27;20208;-66
2021/06/05 09:08:06;;;;;;;0.67;0.67;;;;;;;;;;5138329;27;20207;-66
2021/06/05 09:10:33;;;;;;;0.50;0.50;;;;;;;;;;5137836;27;20241;-66
2021/06/05 09:13:01;;;;;;;0.67;0.67;;;;;;;;;;5134308;27;20255;-66
2021/06/05 09:15:31;;;;;;;0.80;0.80;;;;;;;;;;5138021;27;20200;-66
2021/06/05 09:18:00;;;;;;;0.87;0.77;;;;;;;;;;5138432;27;20751;-66
2021/06/05 09:20:37;;;;;;;1.83;0.80;;;;;;;;;;5137866;27;20203;-66
2021/06/05 09:23:31;;;;;;;0.60;0.60;;;;;;;;;;5138531;27;20249;-66
2021/06/05 09:26:17;;;;;;;3.60;1.17;;;;;;;;;;5129201;27;20279;-65
2021/06/05 09:28:44;;;;;;;0.67;0.20;;;;;;;;;;5138177;27;20225;-66
2021/06/05 09:31:13;;;;;;;0.50;0.50;;;;;;;;;;5138532;27;20682;-65
2021/06/05 09:33:41;;;;;;;0.50;0.50;;;;;;;;;;5138401;27;20208;-65
2021/06/05 09:36:14;;;;;;;0.83;0.30;;;;;;;;;;5138076;28;20648;-65
2021/06/05 09:38:47;;;;;;;0.30;0.30;;;;;;;;;;5125037;28;20232;-66
2021/06/05 09:41:18;;;;;;;0.43;0.40;;;;;;;;;;5133665;28;20220;-66
2021/06/05 09:43:47;;;;;;;0.50;0.50;;;;;;;;;;5126825;28;20635;-66
2021/06/05 09:46:21;;;;;;;1.60;0.37;;;;;;;;;;5135269;28;20209;-66
2021/06/05 09:48:49;;;;;;;0.20;0.20;;;;;;;;;;5134596;28;20678;-67
2021/06/05 09:51:24;;;;;;;0.70;0.57;;;;;;;;;;5136611;28;20235;-66
2021/06/05 09:54:01;;;;;;;2.47;2.00;;;;;;;;;;5137465;28;20216;-64
2021/06/05 09:56:30;;;;;;;0.47;0.47;;;;;;;;;;5138051;28;20291;-65
2021/06/05 09:59:03;;;;;;;0.23;0.23;;;;;;;;;;5137968;28;20231;-65
2021/06/05 10:01:31;;;;;;;0.30;0.30;;;;;;;;;;5134978;28;20219;-67
2021/06/05 10:04:10;;;;;;;0.30;0.30;;;;;;;;;;5137557;28;20229;-67
2021/06/05 10:06:40;;;;;;;0.30;0.30;;;;;;;;;;5137975;28;20211;-67
2021/06/05 10:09:34;;;;;;;0.20;0.20;;;;;;;;;;5138016;28;20207;-67
2021/06/05 10:12:05;;;;;;;0.83;0.23;;;;;;;;;;5070458;28;20243;-66
2021/06/05 10:14:59;;;;;;;0.20;0.20;;;;;;;;;;5136536;28;20210;-66
2021/06/05 10:17:33;;;;;;;0.10;0.10;;;;;;;;;;5099406;28;20574;-66
2021/06/05 10:20:07;;;;;;;0.50;0.20;;;;;;;;;;5137911;28;20565;-66
2021/06/05 10:22:35;;;;;;;0.20;0.20;;;;;;;;;;5137838;28;20233;-66
2021/06/05 10:25:06;;;;;;;1.10;0.20;;;;;;;;;;5138189;28;20217;-67
2021/06/05 10:27:36;;;;;;;0.10;0.10;;;;;;;;;;5137973;28;20204;-66
2021/06/05 10:30:06;;;;;;;0.10;0.10;;;;;;;;;;5137933;28;20239;-67
2021/06/05 10:32:37;;;;;;;0.67;0.40;;;;;;;;;;5138496;27;20230;-67
2021/06/05 10:35:06;;;;;;;1.73;0.90;;;;;;;;;;5141714;27;20204;-65
2021/06/05 10:37:36;;;;;;;0.87;0.40;;;;;;;;;;5141390;27;20230;-66
2021/06/05 10:40:05;;;;;;;0.90;0.90;;;;;;;;;;5141804;27;20205;-64
2021/06/05 10:42:39;;;;;;;2.50;2.30;;;;;;;;;;5141495;27;20241;-65
2021/06/05 10:45:08;;;;;;;3.73;1.63;;;;;;;;;;5141656;27;20201;-67
2021/06/05 10:47:40;;;;;;;3.93;1.80;;;;;;;;;;5141169;27;20564;-67
2021/06/05 10:50:12;;;;;;;1.60;1.50;;;;;;;;;;5141144;27;20214;-67
2021/06/05 10:52:43;;;;;;;5.80;5.30;;;;;;;;;;5141056;27;20236;-65
2021/06/05 10:55:12;;;;;;;0.90;0.90;;;;;;;;;;5141392;27;20285;-65
2021/06/05 10:57:42;;;;;;;2.67;1.47;;;;;;;;;;5140810;27;20226;-66
2021/06/05 11:00:25;;;;;;;3.37;1.40;;;;;;;;;;5140661;27;20668;-66
2021/06/05 11:02:54;;;;;;;1.37;1.27;;;;;;;;;;5137962;27;20229;-66
2021/06/05 11:05:41;;;;;;;2.10;1.30;;;;;;;;;;5140582;27;20203;-66
2021/06/05 11:08:28;;;;;;;0.73;0.73;;;;;;;;;;5140913;27;20201;-66
2021/06/05 11:11:11;;;;;;;1.63;0.93;;;;;;;;;;5140840;27;20208;-65
2021/06/05 11:13:53;;;;;;;0.67;0.60;;;;;;;;;;5133140;27;20207;-66
2021/06/05 11:16:21;;;;;;;0.87;0.87;;;;;;;;;;5140343;27;20672;-65
2021/06/05 11:19:09;;;;;;;0.60;0.60;;;;;;;;;;5140661;27;20253;-65
2021/06/05 11:21:40;;;;;;;0.73;0.73;;;;;;;;;;5140154;27;20220;-64
2021/06/05 11:24:19;;;;;;;2.10;0.80;;;;;;;;;;5140609;27;20219;-64
2021/06/05 11:26:48;;;;;;;1.63;0.70;;;;;;;;;;5140965;27;20212;-65
2021/06/05 11:29:33;;;;;;;1.73;0.70;;;;;;;;;;5140596;27;20310;-65
2021/06/05 11:32:07;;;;;;;0.60;0.60;;;;;;;;;;5140516;27;20234;-65
2021/06/05 11:34:52;;;;;;;0.93;0.80;;;;;;;;;;5141240;27;20213;-65
2021/06/05 11:37:38;;;;;;;0.67;0.67;;;;;;;;;;5140643;27;20210;-65
2021/06/05 11:40:08;;;;;;;0.50;0.50;;;;;;;;;;5140388;27;20216;-68
2021/06/05 11:42:53;;;;;;;0.67;0.50;;;;;;;;;;5137661;27;20215;-65
2021/06/05 11:45:51;;;;;;;1.23;0.40;;;;;;;;;;5135298;27;20203;-65
2021/06/05 11:48:33;;;;;;;0.67;0.50;;;;;;;;;;5140016;27;20210;-66
2021/06/05 11:51:26;;;;;;;1.00;0.70;;;;;;;;;;5111183;27;20203;-66
2021/06/05 11:53:54;;;;;;;0.70;0.33;;;;;;;;;;5127262;27;20204;-69
2021/06/05 11:56:24;;;;;;;2.20;0.60;;;;;;;;;;5139945;27;20550;-66
2021/06/05 11:58:52;;;;;;;1.30;0.40;;;;;;;;;;5140261;27;20227;-67
2021/06/05 12:01:25;;;;;;;0.63;0.57;;;;;;;;;;5139278;27;20579;-67
2021/06/05 12:04:01;;;;;;;0.63;0.63;;;;;;;;;;5139824;27;20257;-67
2021/06/05 12:06:31;;;;;;;0.50;0.50;;;;;;;;;;5139633;27;20225;-63
2021/06/05 12:09:04;;;;;;;2.03;0.70;;;;;;;;;;5140123;27;20280;-64
2021/06/05 12:11:36;;;;;;;0.83;0.53;;;;;;;;;;5139665;27;20304;-65
2021/06/05 12:14:14;;;;;;;1.40;0.93;;;;;;;;;;5132952;27;20248;-66
2021/06/05 12:16:49;;;;;;;0.30;0.30;;;;;;;;;;5139919;27;20254;-65
2021/06/05 12:19:17;;;;;;;0.10;0.10;;;;;;;;;;5139823;27;20227;-66
2021/06/05 12:21:44;;;;;;;0.23;0.23;;;;;;;;;;5139710;27;20228;-65
2021/06/05 12:24:14;;;;;;;0.37;0.37;;;;;;;;;;5139849;27;20203;-66
2021/06/05 12:26:55;;;;;;;0.50;0.50;;;;;;;;;;5139757;27;20221;-65
2021/06/05 12:29:24;;;;;;;1.17;0.50;;;;;;;;;;5139781;27;20596;-66
2021/06/05 12:31:53;;;;;;;0.63;0.50;;;;;;;;;;5126202;27;20299;-65
2021/06/05 12:34:30;;;;;;;1.23;0.40;;;;;;;;;;5125395;27;20232;-64
2021/06/05 12:36:59;;;;;;;1.00;0.70;;;;;;;;;;5138119;27;20221;-64
2021/06/05 12:39:36;;;;;;;2.47;0.60;;;;;;;;;;5138632;27;20223;-64
2021/06/05 12:42:07;;;;;;;0.30;0.30;;;;;;;;;;5138768;27;20284;-65
2021/06/05 12:44:35;;;;;;;1.20;0.60;;;;;;;;;;5138723;27;20211;-64
2021/06/05 12:47:04;;;;;;;0.30;0.30;;;;;;;;;;5139470;27;20291;-64
2021/06/05 12:49:32;;;;;;;0.73;0.40;;;;;;;;;;5139205;27;20239;-65
2021/06/05 12:52:01;;;;;;;0.30;0.30;;;;;;;;;;5139349;27;20264;-65
2021/06/05 12:54:31;;;;;;;1.20;0.27;;;;;;;;;;5139592;27;20208;-64
2021/06/05 12:57:19;;;;;;;0.70;0.70;;;;;;;;;;5127929;27;20209;-66
2021/06/05 12:59:48;;;;;;;0.70;0.70;;;;;;;;;;5128313;27;20236;-68
2021/06/05 13:02:25;;;;;;;1.07;0.63;;;;;;;;;;5138953;27;20584;-66
2021/06/05 13:04:53;;;;;;;0.80;0.80;;;;;;;;;;5138782;27;20205;-65
2021/06/05 13:07:31;;;;;;;0.83;0.60;;;;;;;;;;5138434;27;20235;-66
2021/06/05 13:09:58;;;;;;;2.07;0.60;;;;;;;;;;5138556;27;20288;-66
2021/06/05 13:12:27;;;;;;;0.70;0.70;;;;;;;;;;5125496;27;20310;-66
2021/06/05 13:15:06;;;;;;;2.47;0.80;;;;;;;;;;5138681;27;20207;-66
2021/06/05 13:17:34;;;;;;;0.63;0.63;;;;;;;;;;5138826;27;20216;-66
2021/06/05 13:20:06;;;;;;;2.73;0.73;;;;;;;;;;5138597;27;20224;-66
2021/06/05 13:22:34;;;;;;;1.00;0.90;;;;;;;;;;5138955;27;20287;-67
2021/06/05 13:25:05;;;;;;;0.73;0.73;;;;;;;;;;5138531;27;20692;-67
2021/06/05 13:27:36;;;;;;;0.40;0.40;;;;;;;;;;5135785;27;20276;-66
2021/06/05 13:30:16;;;;;;;0.73;0.60;;;;;;;;;;5133067;27;20217;-66
2021/06/05 13:32:45;;;;;;;0.50;0.50;;;;;;;;;;5134028;27;20228;-67
2021/06/05 13:35:18;;;;;;;0.40;0.40;;;;;;;;;;5136195;27;20201;-67
2021/06/05 13:37:53;;;;;;;0.47;0.47;;;;;;;;;;5138122;28;20204;-68
2021/06/05 13:40:22;;;;;;;0.20;0.20;;;;;;;;;;5138525;28;20632;-68
2021/06/05 13:42:50;;;;;;;0.60;0.40;;;;;;;;;;5138171;28;20270;-66
2021/06/05 13:45:21;;;;;;;0.37;0.37;;;;;;;;;;5138312;28;20293;-67
2021/06/05 13:47:49;;;;;;;0.30;0.30;;;;;;;;;;5138523;28;20274;-67
2021/06/05 13:50:19;;;;;;;0.53;0.50;;;;;;;;;;5137983;28;20230;-67
2021/06/05 13:52:46;;;;;;;0.50;0.50;;;;;;;;;;5130794;28;20654;-68
2021/06/05 13:55:17;;;;;;;1.53;0.30;;;;;;;;;;5130497;28;20200;-67
2021/06/05 13:57:45;;;;;;;0.33;0.33;;;;;;;;;;5130502;28;20732;-67
2021/06/05 14:00:13;;;;;;;1.03;0.40;;;;;;;;;;5128948;28;20216;-69
2021/06/05 14:02:43;;;;;;;1.50;0.43;;;;;;;;;;5126875;28;20284;-68
2021/06/05 14:05:11;;;;;;;0.30;0.30;;;;;;;;;;5138109;28;20240;-68
2021/06/05 14:07:38;;;;;;;0.30;0.30;;;;;;;;;;5140552;27;20215;-67
2021/06/05 14:10:06;;;;;;;0.40;0.40;;;;;;;;;;5136728;27;20228;-66
2021/06/05 14:12:35;;;;;;;0.30;0.30;;;;;;;;;;5134558;27;20226;-67
2021/06/05 14:15:04;;;;;;;0.30;0.30;;;;;;;;;;5139261;27;20200;-66
2021/06/05 14:17:32;;;;;;;0.60;0.50;;;;;;;;;;5140083;27;20559;-67
2021/06/05 14:20:01;;;;;;;0.27;0.27;;;;;;;;;;5132493;27;20261;-66
2021/06/05 14:22:29;;;;;;;0.60;0.33;;;;;;;;;;5137314;27;20653;-67
2021/06/05 14:24:56;;;;;;;1.80;0.40;;;;;;;;;;5137117;27;20572;-67
2021/06/05 14:27:24;;;;;;;2.37;0.60;;;;;;;;;;5134066;27;20280;-67
2021/06/05 14:29:51;;;;;;;0.73;0.50;;;;;;;;;;5134309;27;20592;-65
2021/06/05 14:32:19;;;;;;;0.50;0.50;;;;;;;;;;5141025;27;20313;-65
2021/06/05 14:34:46;;;;;;;0.60;0.60;;;;;;;;;;5133433;27;20677;-66
2021/06/05 14:37:15;;;;;;;0.40;0.40;;;;;;;;;;5134710;27;20257;-65
2021/06/05 14:39:43;;;;;;;0.77;0.60;;;;;;;;;;5137709;27;20259;-65
2021/06/05 14:42:10;;;;;;;0.60;0.60;;;;;;;;;;5132429;27;20303;-67
2021/06/05 14:44:38;;;;;;;0.47;0.43;;;;;;;;;;5134533;27;20196;-66
2021/06/05 14:47:06;;;;;;;0.60;0.60;;;;;;;;;;5141061;27;20246;-67
2021/06/05 14:49:33;;;;;;;0.50;0.50;;;;;;;;;;5132303;27;20199;-66
2021/06/05 14:52:01;;;;;;;0.60;0.60;;;;;;;;;;5139683;27;20243;-65
2021/06/05 14:54:30;;;;;;;0.50;0.50;;;;;;;;;;5135264;27;20255;-66
2021/06/05 14:56:57;;;;;;;0.50;0.50;;;;;;;;;;5132705;27;20232;-65
2021/06/05 14:59:26;;;;;;;1.83;0.60;;;;;;;;;;5130755;27;20224;-65